Time;durP1;ratioP1;P1;durP2;ratioP2;P2;SDS_P1;SDS_P2;PMS_P1;PMS_P2;Temp;Humidity;BMP_temperature;BMP_pressure;BME280_temperature;BME280_humidity;BME280_pressure;Samples;Min_cycle;Max_cycle;Signal;HPM_P1;HPM_P2
2022/10/18 00:01:07;;;;;;;7.03;3.22;;;17.60;99.90;;;;;;7392269;19;20242;-71
2022/10/18 00:03:34;;;;;;;9.43;3.05;;;17.70;99.90;;;;;;7391234;19;20178;-72
2022/10/18 00:06:01;;;;;;;5.38;3.08;;;17.60;99.90;;;;;;7392110;19;20146;-71
2022/10/18 00:08:27;;;;;;;5.65;3.55;;;17.60;99.90;;;;;;7391624;19;20154;-72
2022/10/18 00:10:53;;;;;;;4.03;3.08;;;17.60;99.90;;;;;;7386880;19;20143;-73
2022/10/18 00:13:19;;;;;;;4.57;3.00;;;17.50;99.90;;;;;;7392758;19;20139;-73
2022/10/18 00:15:54;;;;;;;5.05;3.10;;;17.50;99.90;;;;;;7391634;19;20145;-73
2022/10/18 00:18:20;;;;;;;5.53;3.28;;;17.50;99.90;;;;;;7391273;19;20126;-72
2022/10/18 00:20:55;;;;;;;6.90;3.33;;;17.50;99.90;;;;;;7394129;19;20990;-72
2022/10/18 00:23:21;;;;;;;5.05;3.17;;;17.50;99.90;;;;;;7392073;19;20157;-73
2022/10/18 00:25:47;;;;;;;6.90;3.80;;;17.60;99.90;;;;;;7392299;19;20615;-72
2022/10/18 00:28:13;;;;;;;5.38;3.92;;;17.40;99.90;;;;;;7392153;19;20146;-73
2022/10/18 00:30:38;;;;;;;4.47;3.38;;;17.40;99.90;;;;;;7391848;19;20175;-72
2022/10/18 00:33:04;;;;;;;4.85;3.45;;;17.10;99.90;;;;;;7390266;19;20308;-72
2022/10/18 00:35:33;;;;;;;5.05;2.90;;;16.90;99.90;;;;;;7394205;19;20599;-71
2022/10/18 00:37:59;;;;;;;3.83;2.72;;;17.10;99.90;;;;;;7389642;19;20159;-72
2022/10/18 00:40:25;;;;;;;4.10;2.45;;;16.90;99.90;;;;;;7392864;19;20162;-72
2022/10/18 00:42:50;;;;;;;3.72;2.67;;;17.00;99.90;;;;;;7391964;19;20196;-71
2022/10/18 00:45:23;;;;;;;5.28;2.58;;;16.90;99.90;;;;;;7392174;19;20134;-72
2022/10/18 00:47:56;;;;;;;4.80;2.65;;;16.80;99.90;;;;;;7392469;19;20166;-72
2022/10/18 00:50:23;;;;;;;3.58;2.67;;;16.70;99.90;;;;;;7392268;19;20633;-71
2022/10/18 00:52:54;;;;;;;4.05;2.70;;;16.60;99.90;;;;;;7393315;19;20158;-72
2022/10/18 00:55:20;;;;;;;4.32;2.70;;;16.80;99.90;;;;;;7391144;19;20975;-73
2022/10/18 00:57:46;;;;;;;4.35;2.58;;;16.80;99.90;;;;;;7392080;19;20158;-72
2022/10/18 01:00:12;;;;;;;5.65;2.40;;;17.00;99.90;;;;;;7392972;19;20202;-71
2022/10/18 01:02:41;;;;;;;5.82;2.80;;;17.20;99.90;;;;;;7393166;19;20154;-72
2022/10/18 01:05:09;;;;;;;4.03;2.72;;;17.10;99.90;;;;;;7392834;19;20162;-72
2022/10/18 01:08:00;;;;;;;8.18;3.10;;;16.90;99.90;;;;;;7389133;19;20181;-71
2022/10/18 01:10:34;;;;;;;4.03;2.60;;;16.80;99.90;;;;;;7391826;19;20263;-72
2022/10/18 01:13:38;;;;;;;7.28;3.05;;;16.70;99.90;;;;;;7392166;19;20239;-73
2022/10/18 01:16:28;;;;;;;5.68;2.65;;;16.50;99.90;;;;;;7388319;19;20138;-72
2022/10/18 01:19:30;;;;;;;4.60;2.88;;;16.90;99.90;;;;;;7388787;19;20214;-72
2022/10/18 01:22:20;;;;;;;6.35;3.00;;;17.10;99.90;;;;;;7387197;19;20233;-73
2022/10/18 01:25:04;;;;;;;4.22;3.00;;;17.00;99.90;;;;;;7393058;19;20172;-72
2022/10/18 01:27:58;;;;;;;6.68;2.33;;;17.00;99.90;;;;;;7391095;19;20150;-73
2022/10/18 01:30:52;;;;;;;3.78;2.90;;;17.00;99.90;;;;;;7391159;19;20154;-71
2022/10/18 01:33:26;;;;;;;3.92;2.53;;;17.20;99.90;;;;;;7389324;19;20150;-73
2022/10/18 01:35:58;;;;;;;4.70;2.85;;;17.30;99.90;;;;;;7392831;19;20741;-72
2022/10/18 01:38:25;;;;;;;4.95;3.13;;;17.50;99.90;;;;;;7390652;19;20479;-72
2022/10/18 01:40:53;;;;;;;7.13;3.25;;;17.30;99.90;;;;;;7390478;19;20528;-73
2022/10/18 01:43:21;;;;;;;4.72;2.80;;;17.30;99.90;;;;;;7391722;19;20170;-72
2022/10/18 01:45:48;;;;;;;4.35;3.10;;;17.40;99.90;;;;;;7391566;19;20146;-72
2022/10/18 01:48:16;;;;;;;6.03;2.90;;;17.20;99.90;;;;;;7389050;19;20138;-72
2022/10/18 01:50:41;;;;;;;6.10;3.03;;;17.20;99.90;;;;;;7390595;19;20146;-72
2022/10/18 01:53:25;;;;;;;4.82;2.92;;;17.40;99.90;;;;;;7389216;19;20137;-73
2022/10/18 01:56:15;;;;;;;4.88;3.00;;;17.40;99.90;;;;;;7392575;19;20170;-72
2022/10/18 01:58:50;;;;;;;6.45;3.10;;;17.30;99.90;;;;;;7386846;19;20161;-72
2022/10/18 02:01:59;;;;;;;5.70;2.83;;;17.40;99.90;;;;;;7388727;19;20151;-72
2022/10/18 02:04:37;;;;;;;4.05;2.92;;;17.30;99.90;;;;;;7385921;19;20535;-73
2022/10/18 02:07:27;;;;;;;6.57;3.08;;;17.40;99.90;;;;;;7390697;19;20207;-72
2022/10/18 02:10:20;;;;;;;3.63;2.45;;;17.40;99.90;;;;;;7390410;19;20159;-72
2022/10/18 02:12:47;;;;;;;4.43;2.88;;;17.40;99.90;;;;;;7387089;19;20154;-72
2022/10/18 02:15:17;;;;;;;3.60;2.55;;;17.40;99.90;;;;;;7391212;19;20570;-73
2022/10/18 02:17:44;;;;;;;6.55;2.70;;;17.30;99.90;;;;;;7391459;19;20137;-74
2022/10/18 02:20:13;;;;;;;5.22;3.00;;;17.30;99.90;;;;;;7392979;19;20138;-72
2022/10/18 02:22:41;;;;;;;7.40;2.85;;;17.30;99.90;;;;;;7387415;19;20588;-71
2022/10/18 02:25:13;;;;;;;5.20;2.78;;;17.10;99.90;;;;;;7392152;19;20130;-71
2022/10/18 02:27:39;;;;;;;5.47;2.92;;;17.20;99.90;;;;;;7394023;19;20169;-72
2022/10/18 02:30:05;;;;;;;3.83;2.85;;;17.30;99.90;;;;;;7397533;19;20205;-73
2022/10/18 02:32:37;;;;;;;4.25;2.47;;;17.20;99.90;;;;;;7397101;19;20153;-73
2022/10/18 02:35:16;;;;;;;6.75;2.78;;;16.70;99.90;;;;;;7399124;19;20560;-72
2022/10/18 02:37:43;;;;;;;5.88;2.65;;;16.80;99.90;;;;;;7396201;19;20484;-72
2022/10/18 02:40:10;;;;;;;5.75;2.90;;;17.10;99.90;;;;;;7399274;19;20512;-72
2022/10/18 02:42:48;;;;;;;5.72;2.70;;;16.80;99.90;;;;;;7397096;19;20142;-73
2022/10/18 02:45:14;;;;;;;3.28;2.35;;;17.00;99.90;;;;;;7391607;19;20243;-74
2022/10/18 02:47:41;;;;;;;3.50;2.60;;;17.10;99.90;;;;;;7391639;19;20150;-73
2022/10/18 02:50:07;;;;;;;5.47;2.58;;;17.10;99.90;;;;;;7391065;19;20243;-72
2022/10/18 02:52:33;;;;;;;5.30;2.63;;;16.80;99.90;;;;;;7391108;19;20146;-75
2022/10/18 02:54:58;;;;;;;5.43;2.67;;;16.90;99.90;;;;;;7387947;19;20130;-75
2022/10/18 02:57:24;;;;;;;4.35;2.40;;;17.10;99.90;;;;;;7389175;19;20245;-76
2022/10/18 02:59:50;;;;;;;5.55;2.58;;;17.20;99.90;;;;;;7386194;19;20123;-75
2022/10/18 03:02:15;;;;;;;5.00;2.33;;;17.30;99.90;;;;;;7389234;19;20150;-71
2022/10/18 03:04:41;;;;;;;5.28;2.53;;;17.30;99.90;;;;;;7387828;19;20165;-72
2022/10/18 03:07:07;;;;;;;9.88;3.03;;;17.30;99.90;;;;;;7389500;19;20138;-72
2022/10/18 03:09:33;;;;;;;5.35;2.83;;;17.20;99.90;;;;;;7388064;19;20135;-72
2022/10/18 03:11:58;;;;;;;5.25;2.35;;;17.30;99.90;;;;;;7388275;19;20137;-72
2022/10/18 03:14:24;;;;;;;5.72;2.42;;;17.30;99.90;;;;;;7385676;19;20153;-72
2022/10/18 03:16:50;;;;;;;3.10;2.70;;;17.20;99.90;;;;;;7388863;19;20127;-72
2022/10/18 03:19:16;;;;;;;3.00;2.40;;;17.30;99.90;;;;;;7384450;19;20930;-72
2022/10/18 03:21:41;;;;;;;5.45;2.88;;;17.30;99.90;;;;;;7388473;19;20130;-73
2022/10/18 03:24:07;;;;;;;4.68;2.72;;;17.10;99.90;;;;;;7387414;19;20135;-72
2022/10/18 03:26:33;;;;;;;6.68;2.67;;;17.20;99.90;;;;;;7386886;19;20162;-73
2022/10/18 03:28:59;;;;;;;7.65;3.00;;;17.20;99.90;;;;;;7386677;19;20613;-72
2022/10/18 03:31:24;;;;;;;3.72;2.70;;;16.90;99.90;;;;;;7389282;19;20187;-73
2022/10/18 03:33:50;;;;;;;3.88;2.58;;;16.90;99.90;;;;;;7387842;19;20163;-73
2022/10/18 03:36:16;;;;;;;5.72;3.03;;;17.10;99.90;;;;;;7388160;19;20146;-73
2022/10/18 03:38:42;;;;;;;5.30;2.63;;;17.30;99.90;;;;;;7388879;19;20158;-71
2022/10/18 03:41:07;;;;;;;6.72;2.90;;;17.40;99.90;;;;;;7389690;19;20134;-72
2022/10/18 03:43:33;;;;;;;5.47;2.80;;;17.30;99.90;;;;;;7387523;19;20138;-73
2022/10/18 03:46:00;;;;;;;5.93;2.47;;;17.40;99.90;;;;;;7389587;19;20131;-72
2022/10/18 03:48:25;;;;;;;5.30;3.05;;;17.30;99.90;;;;;;7384848;19;20625;-72
2022/10/18 03:50:51;;;;;;;3.33;2.70;;;17.30;99.90;;;;;;7388020;19;20323;-72
2022/10/18 03:53:17;;;;;;;4.95;2.78;;;17.30;99.90;;;;;;7387519;19;20167;-73
2022/10/18 03:55:42;;;;;;;5.93;2.40;;;17.30;99.90;;;;;;7386706;19;20131;-71
2022/10/18 03:58:08;;;;;;;3.95;2.30;;;17.30;99.90;;;;;;7387569;19;20624;-73
2022/10/18 04:00:34;;;;;;;3.95;2.28;;;17.40;99.90;;;;;;7386343;19;20157;-72
2022/10/18 04:03:00;;;;;;;3.95;2.60;;;17.00;99.90;;;;;;7384745;19;20676;-72
2022/10/18 04:05:29;;;;;;;6.55;2.53;;;17.10;99.90;;;;;;7386412;19;20185;-72
2022/10/18 04:07:55;;;;;;;7.55;2.45;;;17.10;99.90;;;;;;7383736;19;20154;-73
2022/10/18 04:10:21;;;;;;;6.80;2.65;;;17.10;99.90;;;;;;7388584;19;20619;-73
2022/10/18 04:12:47;;;;;;;3.30;2.47;;;17.10;99.90;;;;;;7384717;19;20150;-72
2022/10/18 04:15:13;;;;;;;4.30;2.17;;;16.90;99.90;;;;;;7386630;19;20616;-73
2022/10/18 04:17:38;;;;;;;3.33;2.13;;;17.00;99.90;;;;;;7387924;19;20135;-74
2022/10/18 04:20:05;;;;;;;4.13;2.30;;;17.10;99.90;;;;;;7386154;19;20159;-74
2022/10/18 04:22:30;;;;;;;6.25;2.60;;;17.30;99.90;;;;;;7385521;19;20243;-73
2022/10/18 04:24:56;;;;;;;4.28;2.72;;;17.00;99.90;;;;;;7385544;19;20158;-74
2022/10/18 04:27:22;;;;;;;4.32;2.30;;;17.00;99.90;;;;;;7386506;19;20162;-73
2022/10/18 04:29:48;;;;;;;4.45;2.67;;;17.00;99.90;;;;;;7383929;19;20127;-73
2022/10/18 04:32:13;;;;;;;4.20;2.47;;;17.10;99.90;;;;;;7392497;19;20146;-73
2022/10/18 04:34:39;;;;;;;4.18;2.67;;;17.10;99.90;;;;;;7391049;19;20597;-74
2022/10/18 04:37:05;;;;;;;7.80;2.97;;;16.80;99.90;;;;;;7395716;19;20850;-73
2022/10/18 04:39:31;;;;;;;4.88;3.03;;;16.90;99.90;;;;;;7394500;19;20487;-73
2022/10/18 04:41:56;;;;;;;4.93;2.08;;;17.00;99.90;;;;;;7393861;19;20592;-72
2022/10/18 04:44:22;;;;;;;2.17;1.98;;;16.80;99.90;;;;;;7392934;19;20135;-73
2022/10/18 04:46:48;;;;;;;4.70;3.00;;;16.70;99.90;;;;;;7394899;19;20469;-74
2022/10/18 04:49:13;;;;;;;6.35;3.03;;;16.90;99.90;;;;;;7392199;19;20157;-73
2022/10/18 04:51:39;;;;;;;8.10;2.90;;;16.90;99.90;;;;;;7394501;19;20162;-74
2022/10/18 04:54:05;;;;;;;5.53;2.72;;;17.10;99.90;;;;;;7391634;19;20158;-73
2022/10/18 04:56:31;;;;;;;9.00;2.53;;;17.30;99.90;;;;;;7393452;19;20162;-73
2022/10/18 04:58:58;;;;;;;8.32;2.60;;;17.50;99.90;;;;;;7391978;19;20150;-73
2022/10/18 05:01:24;;;;;;;4.57;3.00;;;17.30;99.90;;;;;;7394324;19;20671;-73
2022/10/18 05:03:53;;;;;;;4.03;2.78;;;17.30;99.90;;;;;;7392730;19;20157;-74
2022/10/18 05:06:20;;;;;;;5.97;2.65;;;17.10;99.90;;;;;;7391148;19;20159;-74
2022/10/18 05:08:46;;;;;;;5.32;2.58;;;16.70;99.90;;;;;;7389460;19;20186;-73
2022/10/18 05:11:12;;;;;;;5.53;2.33;;;16.50;99.90;;;;;;7393027;19;20146;-72
2022/10/18 05:13:38;;;;;;;4.05;2.40;;;16.60;99.90;;;;;;7391014;19;20127;-73
2022/10/18 05:16:04;;;;;;;3.60;2.20;;;16.70;99.90;;;;;;7392421;19;20162;-73
2022/10/18 05:18:30;;;;;;;5.65;2.67;;;16.90;99.90;;;;;;7391347;19;20559;-73
2022/10/18 05:20:56;;;;;;;6.78;2.80;;;16.90;99.90;;;;;;7393590;19;20131;-73
2022/10/18 05:23:23;;;;;;;7.70;3.03;;;17.00;99.90;;;;;;7392803;19;20142;-73
2022/10/18 05:25:49;;;;;;;4.45;2.70;;;17.10;99.90;;;;;;7391948;19;20690;-73
2022/10/18 05:28:14;;;;;;;3.53;2.30;;;17.00;99.90;;;;;;7390621;19;21037;-73
2022/10/18 05:30:40;;;;;;;4.90;2.65;;;17.20;99.90;;;;;;7393424;19;20235;-74
2022/10/18 05:33:07;;;;;;;5.35;2.20;;;17.20;99.90;;;;;;7390004;19;20138;-73
2022/10/18 05:35:33;;;;;;;4.55;2.42;;;17.20;99.90;;;;;;7389977;19;20488;-74
2022/10/18 05:38:02;;;;;;;5.95;2.20;;;17.20;99.90;;;;;;7389127;19;20143;-74
2022/10/18 05:40:28;;;;;;;6.05;2.72;;;17.30;99.90;;;;;;7392869;19;20131;-75
2022/10/18 05:42:53;;;;;;;5.05;2.63;;;17.30;99.90;;;;;;7391528;19;20592;-75
2022/10/18 05:45:19;;;;;;;3.80;2.53;;;17.30;99.90;;;;;;7390616;19;20688;-73
2022/10/18 05:47:45;;;;;;;3.67;2.50;;;17.10;99.90;;;;;;7393667;19;20131;-73
2022/10/18 05:50:11;;;;;;;4.78;2.40;;;17.00;99.90;;;;;;7391213;19;20122;-73
2022/10/18 05:52:36;;;;;;;3.30;2.30;;;16.90;99.90;;;;;;7389520;19;20142;-74
2022/10/18 05:55:02;;;;;;;4.03;2.63;;;16.90;99.90;;;;;;7389228;19;20166;-73
2022/10/18 05:57:28;;;;;;;5.65;2.72;;;16.90;99.90;;;;;;7390058;19;20129;-73
2022/10/18 05:59:54;;;;;;;3.03;2.50;;;17.00;99.90;;;;;;7390621;19;20198;-73
2022/10/18 06:02:19;;;;;;;7.82;3.00;;;17.10;99.90;;;;;;7390473;19;20584;-74
2022/10/18 06:04:45;;;;;;;4.63;3.10;;;17.30;99.90;;;;;;7387603;19;20259;-74
2022/10/18 06:07:11;;;;;;;7.05;3.15;;;17.40;99.90;;;;;;7390127;19;20629;-74
2022/10/18 06:09:37;;;;;;;4.93;2.60;;;17.30;99.90;;;;;;7388124;19;20250;-74
2022/10/18 06:12:04;;;;;;;6.18;3.00;;;17.30;99.90;;;;;;7391713;19;20135;-74
2022/10/18 06:14:30;;;;;;;5.05;2.97;;;17.30;99.90;;;;;;7388443;19;20517;-74
2022/10/18 06:16:55;;;;;;;6.88;2.80;;;17.30;99.90;;;;;;7389380;19;20134;-73
2022/10/18 06:19:22;;;;;;;5.80;2.78;;;17.30;99.90;;;;;;7389560;19;20135;-74
2022/10/18 06:21:48;;;;;;;10.60;3.40;;;17.40;99.90;;;;;;7387315;19;20601;-73
2022/10/18 06:24:14;;;;;;;6.82;3.00;;;17.40;99.90;;;;;;7380831;19;20155;-73
2022/10/18 06:26:40;;;;;;;7.50;3.22;;;17.30;99.90;;;;;;7390124;19;20202;-72
2022/10/18 06:29:06;;;;;;;8.98;3.53;;;17.40;99.90;;;;;;7390193;19;20137;-73
2022/10/18 06:31:32;;;;;;;8.10;3.70;;;17.40;99.90;;;;;;7391442;19;20150;-74
2022/10/18 06:33:57;;;;;;;6.00;3.58;;;17.50;99.90;;;;;;7390101;19;20266;-73
2022/10/18 06:36:23;;;;;;;9.07;4.50;;;17.70;99.90;;;;;;7391785;19;20131;-73
2022/10/18 06:38:50;;;;;;;7.35;3.38;;;17.80;99.90;;;;;;7391778;19;20147;-72
2022/10/18 06:41:18;;;;;;;12.32;3.67;;;17.80;99.90;;;;;;7395009;19;20213;-74
2022/10/18 06:43:48;;;;;;;10.48;4.00;;;17.80;99.90;;;;;;7394166;19;20198;-72
2022/10/18 06:46:13;;;;;;;5.28;3.75;;;17.70;99.90;;;;;;7394799;19;20138;-73
2022/10/18 06:48:39;;;;;;;9.40;3.80;;;17.70;99.90;;;;;;7398152;19;20150;-73
2022/10/18 06:51:06;;;;;;;5.90;3.40;;;17.70;99.90;;;;;;7395187;19;20517;-73
2022/10/18 06:53:34;;;;;;;6.05;3.05;;;17.70;99.90;;;;;;7393861;19;20150;-74
2022/10/18 06:56:03;;;;;;;5.32;3.13;;;17.80;99.90;;;;;;7394875;19;20139;-74
2022/10/18 06:58:30;;;;;;;6.43;3.53;;;17.70;99.90;;;;;;7397896;19;20134;-72
2022/10/18 07:00:57;;;;;;;6.03;3.28;;;17.60;99.90;;;;;;7396013;19;20884;-73
2022/10/18 07:03:23;;;;;;;6.30;3.60;;;17.80;99.90;;;;;;7398487;19;20181;-72
2022/10/18 07:05:49;;;;;;;8.60;3.92;;;17.70;99.90;;;;;;7404043;19;20134;-74
2022/10/18 07:08:16;;;;;;;8.05;3.70;;;17.70;99.90;;;;;;7400912;19;20185;-73
2022/10/18 07:10:41;;;;;;;4.53;2.85;;;17.80;99.90;;;;;;7401552;19;20146;-74
2022/10/18 07:13:07;;;;;;;6.53;2.80;;;17.80;99.90;;;;;;7396537;19;20142;-73
2022/10/18 07:15:37;;;;;;;4.65;2.83;;;17.90;99.90;;;;;;7390392;19;20609;-74
2022/10/18 07:18:03;;;;;;;4.53;2.95;;;18.00;99.90;;;;;;7390859;19;20508;-74
2022/10/18 07:20:29;;;;;;;4.70;2.60;;;18.10;99.90;;;;;;7391242;19;20623;-73
2022/10/18 07:22:57;;;;;;;5.45;2.83;;;18.20;99.90;;;;;;7391361;19;20177;-73
2022/10/18 07:25:23;;;;;;;7.43;3.15;;;18.20;99.90;;;;;;7390679;19;20146;-74
2022/10/18 07:27:49;;;;;;;9.02;4.85;;;18.30;99.90;;;;;;7392345;19;20195;-75
2022/10/18 07:30:15;;;;;;;6.43;3.67;;;18.30;99.90;;;;;;7389779;19;20623;-74
2022/10/18 07:32:41;;;;;;;5.88;3.03;;;18.30;99.90;;;;;;7389940;19;20183;-74
2022/10/18 07:35:07;;;;;;;6.82;3.40;;;18.40;99.90;;;;;;7384584;19;20616;-74
2022/10/18 07:37:33;;;;;;;7.45;2.67;;;18.40;99.90;;;;;;7386456;19;20655;-76
2022/10/18 07:39:58;;;;;;;5.53;2.30;;;18.50;99.90;;;;;;7385114;19;20247;-72
2022/10/18 07:42:24;;;;;;;5.53;2.70;;;18.50;99.90;;;;;;7386753;19;20142;-72
2022/10/18 07:44:50;;;;;;;6.72;2.75;;;18.60;99.90;;;;;;7385499;19;20147;-73
2022/10/18 07:47:17;;;;;;;6.68;2.45;;;18.70;99.90;;;;;;7386580;19;20535;-74
2022/10/18 07:49:42;;;;;;;3.95;2.20;;;18.70;99.90;;;;;;7384572;19;20173;-73
2022/10/18 07:52:08;;;;;;;4.10;2.50;;;18.80;99.90;;;;;;7388331;19;20610;-73
2022/10/18 07:54:34;;;;;;;7.10;4.15;;;18.90;99.90;;;;;;7383761;19;20147;-74
2022/10/18 07:56:59;;;;;;;9.93;3.20;;;18.80;99.90;;;;;;7385950;19;20139;-74
2022/10/18 07:59:25;;;;;;;6.35;3.78;;;19.00;99.90;;;;;;7386633;19;20687;-74
2022/10/18 08:01:51;;;;;;;5.20;2.85;;;19.00;99.90;;;;;;7385610;19;20458;-74
2022/10/18 08:04:17;;;;;;;3.38;2.63;;;19.20;99.90;;;;;;7384124;19;20671;-75
2022/10/18 08:06:42;;;;;;;4.00;2.33;;;19.30;99.90;;;;;;7392757;19;20146;-73
2022/10/18 08:09:09;;;;;;;5.32;2.63;;;19.30;99.90;;;;;;7391811;19;20580;-73
2022/10/18 08:11:34;;;;;;;8.52;2.50;;;19.30;99.90;;;;;;7393361;19;20156;-73
2022/10/18 08:14:00;;;;;;;6.35;2.72;;;19.40;99.90;;;;;;7394483;19;20126;-74
2022/10/18 08:16:27;;;;;;;5.13;2.85;;;19.40;99.90;;;;;;7394947;19;20178;-74
2022/10/18 08:18:56;;;;;;;3.33;2.05;;;19.40;99.90;;;;;;7397066;19;20462;-74
2022/10/18 08:21:22;;;;;;;3.67;2.20;;;19.50;99.90;;;;;;7394015;19;20164;-75
2022/10/18 08:23:48;;;;;;;4.30;2.60;;;19.50;99.90;;;;;;7394342;19;20663;-75
2022/10/18 08:26:17;;;;;;;3.67;2.63;;;19.40;99.90;;;;;;7396192;19;20582;-74
2022/10/18 08:28:43;;;;;;;3.38;2.88;;;19.40;99.90;;;;;;7393389;19;20131;-73
2022/10/18 08:31:11;;;;;;;6.28;4.95;;;19.30;99.90;;;;;;7394779;19;20146;-74
2022/10/18 08:33:38;;;;;;;5.32;2.90;;;19.30;99.90;;;;;;7392596;19;20167;-72
2022/10/18 08:36:06;;;;;;;3.45;2.90;;;19.40;99.90;;;;;;7393252;19;20157;-74
2022/10/18 08:38:37;;;;;;;5.53;2.70;;;19.40;99.90;;;;;;7392907;19;20166;-74
2022/10/18 08:41:36;;;;;;;9.57;5.38;;;19.40;99.90;;;;;;7394144;19;20608;-72
2022/10/18 08:44:40;;;;;;;7.03;3.30;;;19.40;99.90;;;;;;7391878;19;20158;-74
2022/10/18 08:47:13;;;;;;;4.20;3.10;;;19.40;99.90;;;;;;7390656;19;20146;-73
2022/10/18 08:49:47;;;;;;;6.22;2.22;;;19.50;99.90;;;;;;7391106;19;21240;-72
2022/10/18 08:52:27;;;;;;;3.90;2.45;;;19.50;99.90;;;;;;7394101;19;20142;-74
2022/10/18 08:54:57;;;;;;;3.03;2.33;;;19.60;99.90;;;;;;7392908;19;20499;-74
2022/10/18 08:57:23;;;;;;;8.38;2.53;;;19.60;99.90;;;;;;7394265;19;20186;-74
2022/10/18 08:59:49;;;;;;;4.93;2.30;;;19.70;99.90;;;;;;7391124;19;20194;-73
2022/10/18 09:02:42;;;;;;;4.43;2.53;;;19.80;99.90;;;;;;7392845;19;20134;-72
2022/10/18 09:05:16;;;;;;;4.70;2.35;;;19.80;99.90;;;;;;7394346;19;20160;-72
2022/10/18 09:08:21;;;;;;;3.10;2.33;;;19.90;99.90;;;;;;7393864;19;20150;-73
2022/10/18 09:11:08;;;;;;;3.22;2.30;;;20.00;99.90;;;;;;7395365;19;20134;-72
2022/10/18 09:14:19;;;;;;;4.90;2.25;;;20.00;99.90;;;;;;7395770;19;20154;-74
2022/10/18 09:17:01;;;;;;;2.60;1.92;;;20.10;99.90;;;;;;7392060;19;20138;-73
2022/10/18 09:19:56;;;;;;;9.30;6.25;;;20.20;99.90;;;;;;7390271;19;20143;-74
2022/10/18 09:22:37;;;;;;;7.32;3.28;;;20.40;99.90;;;;;;7391433;19;20660;-73
2022/10/18 09:25:16;;;;;;;3.53;2.17;;;20.50;99.90;;;;;;7390924;19;20134;-75
2022/10/18 09:28:04;;;;;;;6.85;5.93;;;20.60;99.90;;;;;;7393254;19;20907;-74
2022/10/18 09:30:46;;;;;;;3.97;2.90;;;20.80;99.90;;;;;;7391322;19;20609;-72
2022/10/18 09:33:31;;;;;;;6.75;2.25;;;21.00;99.90;;;;;;7392115;19;20478;-74
2022/10/18 09:35:59;;;;;;;5.15;2.28;;;21.30;99.90;;;;;;7389354;19;20856;-73
2022/10/18 09:38:31;;;;;;;5.28;2.47;;;21.60;99.90;;;;;;7392342;19;20613;-72
2022/10/18 09:40:56;;;;;;;2.97;2.15;;;21.60;99.90;;;;;;7389888;19;20461;-73
2022/10/18 09:43:29;;;;;;;4.03;2.17;;;21.40;99.90;;;;;;7391456;19;20131;-73
2022/10/18 09:45:56;;;;;;;4.55;1.92;;;21.20;99.90;;;;;;7393126;19;20139;-73
2022/10/18 09:48:41;;;;;;;7.35;2.40;;;21.10;99.90;;;;;;7389920;19;20615;-74
2022/10/18 09:51:13;;;;;;;5.03;2.28;;;20.90;99.90;;;;;;7389123;19;20127;-73
2022/10/18 09:53:48;;;;;;;6.28;2.60;;;20.80;99.90;;;;;;7388169;19;20519;-73
2022/10/18 09:56:18;;;;;;;3.70;2.22;;;20.70;99.90;;;;;;7389513;19;20625;-73
2022/10/18 09:58:46;;;;;;;3.78;2.30;;;20.50;99.90;;;;;;7387027;19;20142;-73
2022/10/18 10:01:17;;;;;;;4.70;2.35;;;20.50;99.90;;;;;;7390966;19;20154;-74
2022/10/18 10:03:43;;;;;;;4.03;2.67;;;20.40;99.90;;;;;;7389217;19;20201;-74
2022/10/18 10:06:11;;;;;;;6.28;2.15;;;20.40;99.90;;;;;;7389295;19;20233;-73
2022/10/18 10:08:47;;;;;;;3.92;3.20;;;20.50;99.90;;;;;;7387672;19;20154;-74
2022/10/18 10:11:33;;;;;;;6.63;2.72;;;20.50;99.90;;;;;;7391941;19;20134;-71
2022/10/18 10:14:08;;;;;;;6.00;3.40;;;20.70;99.90;;;;;;7388608;19;20149;-72
2022/10/18 10:16:50;;;;;;;6.95;3.20;;;20.60;99.90;;;;;;7387799;19;20150;-71
2022/10/18 10:19:21;;;;;;;7.22;4.07;;;20.50;99.90;;;;;;7389275;19;20142;-73
2022/10/18 10:21:49;;;;;;;6.93;3.47;;;20.50;99.90;;;;;;7387843;19;20477;-72
2022/10/18 10:24:23;;;;;;;8.68;4.57;;;20.50;99.90;;;;;;7388806;19;20146;-72
2022/10/18 10:26:49;;;;;;;11.73;6.60;;;20.50;99.90;;;;;;7390422;19;20659;-73
2022/10/18 10:29:46;;;;;;;6.07;3.63;;;20.50;99.90;;;;;;7388407;19;20165;-72
2022/10/18 10:32:14;;;;;;;3.15;2.60;;;20.60;99.90;;;;;;7388713;19;20146;-73
2022/10/18 10:34:40;;;;;;;7.10;2.90;;;20.50;99.90;;;;;;7389095;19;20142;-72
2022/10/18 10:37:26;;;;;;;5.85;2.65;;;20.90;99.90;;;;;;7388754;19;20198;-73
2022/10/18 10:40:19;;;;;;;5.07;3.05;;;20.90;99.90;;;;;;7385794;19;20150;-73
2022/10/18 10:43:09;;;;;;;5.63;2.92;;;20.90;99.90;;;;;;7389271;19;20154;-73
2022/10/18 10:45:40;;;;;;;5.55;3.17;;;20.80;99.90;;;;;;7392242;19;20134;-72
2022/10/18 10:48:17;;;;;;;3.63;2.90;;;20.90;99.90;;;;;;7392982;19;20146;-74
2022/10/18 10:51:05;;;;;;;2.65;2.33;;;20.80;99.90;;;;;;7389865;19;20671;-74
2022/10/18 10:53:49;;;;;;;5.28;2.50;;;20.80;99.90;;;;;;7387265;19;20626;-74
2022/10/18 10:56:21;;;;;;;5.05;2.38;;;21.00;99.90;;;;;;7388334;19;20576;-73
2022/10/18 10:58:47;;;;;;;8.07;2.85;;;21.00;99.90;;;;;;7388480;19;20226;-73
2022/10/18 11:01:25;;;;;;;3.63;2.03;;;21.10;99.90;;;;;;7387066;19;20603;-74
2022/10/18 11:03:54;;;;;;;8.15;2.78;;;21.00;99.90;;;;;;7387062;19;20147;-74
2022/10/18 11:06:52;;;;;;;5.93;2.33;;;21.00;99.90;;;;;;7387960;19;20143;-73
2022/10/18 11:09:36;;;;;;;4.13;2.50;;;21.00;99.90;;;;;;7384483;19;20154;-73
2022/10/18 11:12:37;;;;;;;3.50;2.58;;;21.00;99.90;;;;;;7390010;19;20154;-72
2022/10/18 11:15:13;;;;;;;5.15;2.40;;;21.10;99.90;;;;;;7390912;19;20146;-73
2022/10/18 11:17:45;;;;;;;6.53;3.05;;;21.20;99.90;;;;;;7388749;19;20142;-74
2022/10/18 11:20:39;;;;;;;4.30;2.80;;;21.10;99.90;;;;;;7385327;19;20213;-74
2022/10/18 11:23:14;;;;;;;7.90;2.58;;;21.10;99.90;;;;;;7388783;19;20525;-74
2022/10/18 11:25:59;;;;;;;4.32;2.67;;;21.30;99.90;;;;;;7386173;19;20170;-73
2022/10/18 11:28:43;;;;;;;6.20;3.17;;;21.50;99.90;;;;;;7387379;19;20138;-75
2022/10/18 11:31:30;;;;;;;4.00;2.58;;;21.40;99.90;;;;;;7389059;19;20159;-73
2022/10/18 11:34:37;;;;;;;4.38;2.42;;;21.40;99.90;;;;;;7385594;19;20187;-73
2022/10/18 11:37:55;;;;;;;8.13;3.30;;;21.60;99.90;;;;;;7383999;19;20146;-75
2022/10/18 11:40:39;;;;;;;5.88;4.20;;;21.60;99.90;;;;;;7394942;19;20182;-72
2022/10/18 11:43:24;;;;;;;3.28;2.47;;;21.60;99.90;;;;;;7399514;19;20605;-73
2022/10/18 11:46:14;;;;;;;4.35;2.65;;;21.90;99.90;;;;;;7401561;19;20150;-73
2022/10/18 11:48:59;;;;;;;7.03;3.10;;;21.90;99.90;;;;;;7400002;19;20142;-73
2022/10/18 11:51:43;;;;;;;2.05;1.80;;;21.80;99.90;;;;;;7399691;19;20138;-72
2022/10/18 11:54:32;;;;;;;9.32;4.40;;;21.90;99.90;;;;;;7400075;19;20259;-73
2022/10/18 11:57:16;;;;;;;8.32;3.22;;;21.90;99.90;;;;;;7401907;19;20134;-72
2022/10/18 12:00:15;;;;;;;4.38;3.08;;;21.90;99.90;;;;;;7399619;19;20157;-74
2022/10/18 12:02:47;;;;;;;3.75;2.10;;;21.90;99.90;;;;;;7400654;19;20658;-74
2022/10/18 12:05:14;;;;;;;4.10;3.70;;;21.70;99.90;;;;;;7403235;19;20150;-73
2022/10/18 12:07:51;;;;;;;3.78;2.47;;;21.70;99.90;;;;;;7401654;19;20182;-73
2022/10/18 12:10:19;;;;;;;5.50;2.25;;;21.70;99.90;;;;;;7402951;19;20146;-73
2022/10/18 12:12:52;;;;;;;4.90;2.00;;;21.80;99.90;;;;;;7402624;19;20774;-73
2022/10/18 12:15:21;;;;;;;4.53;1.88;;;21.80;99.90;;;;;;7404352;19;20138;-74
2022/10/18 12:17:53;;;;;;;3.08;2.30;;;21.80;99.90;;;;;;7407401;19;20154;-73
2022/10/18 12:20:28;;;;;;;3.92;1.88;;;22.10;99.90;;;;;;7408010;19;20141;-74
2022/10/18 12:23:11;;;;;;;3.53;1.77;;;22.30;99.90;;;;;;7406145;19;20150;-74
2022/10/18 12:25:40;;;;;;;3.60;2.50;;;22.30;99.90;;;;;;7407646;19;20134;-73
2022/10/18 12:28:29;;;;;;;4.18;1.90;;;22.40;99.90;;;;;;7405241;19;20143;-73
2022/10/18 12:31:05;;;;;;;2.75;1.80;;;22.30;99.90;;;;;;7406410;19;20142;-72
2022/10/18 12:33:37;;;;;;;2.38;1.90;;;22.10;99.90;;;;;;7403873;19;20147;-73
2022/10/18 12:36:21;;;;;;;2.17;1.73;;;22.00;99.90;;;;;;7400322;19;20221;-73
2022/10/18 12:38:59;;;;;;;2.08;1.55;;;22.00;99.90;;;;;;7398356;19;20172;-72
2022/10/18 12:41:28;;;;;;;4.35;1.58;;;22.00;99.90;;;;;;7400196;19;20648;-72
2022/10/18 12:44:29;;;;;;;3.20;1.33;;;22.00;99.90;;;;;;7398759;19;20537;-74
2022/10/18 12:46:58;;;;;;;2.85;1.75;;;22.00;99.90;;;;;;7400889;19;20615;-73
2022/10/18 12:49:32;;;;;;;3.22;1.50;;;21.90;99.90;;;;;;7401012;19;20146;-73
2022/10/18 12:52:19;;;;;;;2.33;1.35;;;21.90;99.90;;;;;;7391217;19;20160;-73
2022/10/18 12:55:02;;;;;;;1.88;1.55;;;21.90;99.90;;;;;;7391009;19;20146;-72
2022/10/18 12:57:50;;;;;;;2.42;1.58;;;21.90;99.90;;;;;;7394534;19;20186;-74
2022/10/18 13:00:28;;;;;;;2.97;1.90;;;21.90;99.90;;;;;;7393234;19;20166;-73
2022/10/18 13:03:16;;;;;;;2.45;1.90;;;21.80;99.90;;;;;;7390597;19;20619;-73
2022/10/18 13:05:55;;;;;;;4.65;1.83;;;21.70;99.90;;;;;;7394174;19;20158;-74
2022/10/18 13:08:32;;;;;;;4.20;2.15;;;21.60;99.90;;;;;;7391564;19;20670;-72
2022/10/18 13:11:26;;;;;;;5.57;2.33;;;21.60;99.90;;;;;;7390909;19;20142;-74